createdAt,value
2023-02-15T00:00:32.874Z,100.00
2023-02-15T00:15:22.803Z,100.00
2023-02-15T00:30:23.809Z,100.00
2023-02-15T00:45:22.936Z,100.00
2023-02-15T01:00:23.327Z,100.00
2023-02-15T01:15:23.317Z,100.00
2023-02-15T01:30:24.051Z,100.00
2023-02-15T01:45:23.075Z,100.00
2023-02-15T02:00:23.268Z,100.00
2023-02-15T02:15:23.889Z,100.00
2023-02-15T02:30:23.987Z,100.00
2023-02-15T02:45:24.135Z,100.00
2023-02-15T03:00:24.160Z,100.00
2023-02-15T03:15:24.105Z,100.00
2023-02-15T03:30:24.318Z,100.00
2023-02-15T03:45:23.549Z,100.00
2023-02-15T04:00:24.238Z,100.00
2023-02-15T04:15:24.206Z,100.00
2023-02-15T04:30:24.530Z,100.00
2023-02-15T04:45:33.514Z,100.00
2023-02-15T05:00:33.575Z,100.00
2023-02-15T05:15:23.651Z,100.00
2023-02-15T05:30:23.911Z,100.00
2023-02-15T05:45:23.621Z,100.00
2023-02-15T06:00:23.647Z,100.00
2023-02-15T06:15:23.090Z,100.00
2023-02-15T06:30:26.308Z,100.00
2023-02-15T06:45:23.192Z,100.00
2023-02-15T07:00:23.781Z,100.00
2023-02-15T07:15:23.314Z,100.00
2023-02-15T07:30:23.328Z,100.00
2023-02-15T07:45:23.966Z,100.00
2023-02-15T08:00:24.033Z,100.00
2023-02-15T08:15:23.466Z,100.00
2023-02-15T08:30:23.596Z,100.00
2023-02-15T08:45:24.211Z,100.00
2023-02-15T09:00:24.520Z,100.00
2023-02-15T09:15:23.554Z,100.00
2023-02-15T09:30:24.592Z,100.00
2023-02-15T09:45:33.464Z,100.00
2023-02-15T10:00:33.447Z,100.00
2023-02-15T10:15:23.573Z,100.00
2023-02-15T10:30:23.565Z,100.00
2023-02-15T10:45:23.632Z,100.00
2023-02-15T11:00:24.159Z,100.00
2023-02-15T11:15:24.128Z,100.00
2023-02-15T11:30:24.461Z,100.00
2023-02-15T11:45:24.409Z,100.00
2023-02-15T12:00:33.474Z,100.00
2023-02-15T12:15:23.496Z,100.00
2023-02-15T12:30:23.536Z,100.00
2023-02-15T12:45:23.461Z,100.00
2023-02-15T13:00:23.587Z,96.83
2023-02-15T13:15:23.645Z,88.50
2023-02-15T13:30:23.777Z,95.13
2023-02-15T13:45:23.838Z,96.27
2023-02-15T14:00:23.713Z,99.33
2023-02-15T14:15:23.908Z,99.70
2023-02-15T14:30:24.124Z,99.73
2023-02-15T14:45:23.923Z,99.97
2023-02-15T15:00:24.082Z,96.97
2023-02-15T15:15:24.061Z,96.95
2023-02-15T15:30:24.099Z,95.20
2023-02-15T15:45:24.212Z,96.55
2023-02-15T16:00:24.263Z,100.00
2023-02-15T16:15:24.009Z,100.00
2023-02-15T16:30:24.359Z,100.00
2023-02-15T16:45:24.113Z,100.00
2023-02-15T17:00:33.488Z,100.00
2023-02-15T17:15:23.379Z,100.00
2023-02-15T17:30:23.462Z,100.00
2023-02-15T17:45:23.643Z,100.00
2023-02-15T18:00:23.572Z,100.00
2023-02-15T18:15:23.558Z,100.00
2023-02-15T18:30:23.882Z,100.00
2023-02-15T18:45:23.957Z,100.00
2023-02-15T19:00:23.693Z,100.00
2023-02-15T19:15:23.890Z,100.00
2023-02-15T19:48:55.588Z,100.00
2023-02-15T20:03:55.547Z,100.00
2023-02-15T20:15:23.516Z,100.00
2023-02-15T20:30:24.038Z,100.00
2023-02-15T20:45:23.097Z,100.00
2023-02-15T21:00:23.151Z,100.00
2023-02-15T21:15:23.884Z,100.00
2023-02-15T21:30:23.559Z,100.00
2023-02-15T21:45:23.213Z,100.00
2023-02-15T22:00:23.882Z,100.00
2023-02-15T22:15:24.133Z,100.00
2023-02-15T22:30:24.295Z,100.00
2023-02-15T22:45:24.318Z,100.00
2023-02-15T23:15:23.558Z,100.00
2023-02-15T23:30:23.741Z,100.00
2023-02-15T23:45:23.793Z,100.00
